createdAt,value
2024-02-18T00:11:00.825Z,7.40
2024-02-18T00:11:52.908Z,7.42
2024-02-18T00:12:54.072Z,7.49
2024-02-18T00:13:54.366Z,7.57
2024-02-18T00:15:08.266Z,7.64
2024-02-18T00:15:53.182Z,7.71
2024-02-18T00:16:59.268Z,7.71
2024-02-18T00:17:53.515Z,7.74
2024-02-18T00:18:54.286Z,7.75
2024-02-18T00:19:54.104Z,7.75
2024-02-18T00:20:53.385Z,7.67
2024-02-18T00:22:08.517Z,7.60
2024-02-18T00:22:57.540Z,7.42
2024-02-18T01:12:21.329Z,7.61
2024-02-18T01:13:02.802Z,7.42
2024-02-18T01:14:03.864Z,7.37
2024-02-18T01:15:04.192Z,7.24
2024-02-18T01:16:03.089Z,7.06
2024-02-18T01:17:03.099Z,6.89
2024-02-18T01:18:05.061Z,6.98
2024-02-18T01:19:06.494Z,7.06
2024-02-18T01:20:45.837Z,7.16
2024-02-18T01:21:05.193Z,7.16
2024-02-18T01:22:18.360Z,7.09
2024-02-18T01:23:17.041Z,7.05
2024-02-18T01:51:52.714Z,6.48
2024-02-18T01:53:03.731Z,6.61
2024-02-18T01:53:50.527Z,6.79
2024-02-18T03:04:52.400Z,7.64
2024-02-18T03:05:47.939Z,7.68
2024-02-18T03:07:02.799Z,7.68
2024-02-18T03:07:50.577Z,7.67
2024-02-18T03:09:17.013Z,7.75
2024-02-18T03:09:58.374Z,7.83
2024-02-18T03:10:52.918Z,7.90
2024-02-18T03:12:18.047Z,8.00
2024-02-18T05:09:14.137Z,8.61
2024-02-18T05:19:06.530Z,8.48
2024-02-18T05:19:46.895Z,8.44
2024-02-18T05:20:43.347Z,8.47
2024-02-18T05:21:42.416Z,8.45
2024-02-18T05:23:16.312Z,8.44
2024-02-18T05:23:49.904Z,8.44
2024-02-18T05:24:54.165Z,8.44
2024-02-18T05:25:44.622Z,8.45
2024-02-18T05:26:44.213Z,8.43
2024-02-18T05:27:45.274Z,8.45
2024-02-18T05:28:45.081Z,8.50
2024-02-18T05:29:45.309Z,8.55
2024-02-18T05:30:43.416Z,8.59
2024-02-18T05:31:46.024Z,8.59
2024-02-18T05:32:41.253Z,8.62
2024-02-18T05:33:49.091Z,8.62
2024-02-18T05:34:57.994Z,8.65
2024-02-18T05:35:42.785Z,8.73
2024-02-18T05:36:41.388Z,8.79
2024-02-18T05:37:42.515Z,8.77
2024-02-18T05:38:42.645Z,8.77
2024-02-18T05:39:57.787Z,8.83
2024-02-18T05:40:41.937Z,8.92
2024-02-18T05:41:43.676Z,8.89
2024-02-18T05:43:03.163Z,8.87
2024-02-18T06:27:43.916Z,8.16
2024-02-18T06:37:01.403Z,8.30
2024-02-18T06:38:01.086Z,8.25
2024-02-18T06:39:00.987Z,8.19
2024-02-18T06:40:02.550Z,8.15
2024-02-18T06:41:00.784Z,8.15
2024-02-18T06:41:59.475Z,8.08
2024-02-18T06:43:00.537Z,8.12
2024-02-18T06:44:03.195Z,8.20
2024-02-18T06:45:14.857Z,8.29
2024-02-18T06:46:03.377Z,8.29
2024-02-18T06:47:06.899Z,8.29
2024-02-18T06:48:29.320Z,8.37
2024-02-18T06:49:08.317Z,8.34
2024-02-18T06:50:00.691Z,8.33
2024-02-18T06:51:02.666Z,8.29
2024-02-18T06:51:59.103Z,8.28
2024-02-18T06:53:02.804Z,8.28
2024-02-18T06:54:22.146Z,8.26
2024-02-18T06:54:59.161Z,8.22
2024-02-18T06:55:59.694Z,8.20
2024-02-18T06:57:13.635Z,8.16
2024-02-18T07:06:56.636Z,8.41
2024-02-18T07:16:48.472Z,8.23
2024-02-18T07:17:38.610Z,8.18
2024-02-18T07:18:53.793Z,8.11
2024-02-18T07:19:38.734Z,8.08
2024-02-18T07:20:52.071Z,8.05
2024-02-18T07:36:43.277Z,8.05
2024-02-18T07:37:32.274Z,8.05
2024-02-18T07:38:26.576Z,8.07
2024-02-18T07:39:29.024Z,8.07
2024-02-18T07:40:48.646Z,8.08
2024-02-18T07:41:29.244Z,8.11
2024-02-18T07:42:33.410Z,8.12
2024-02-18T07:43:29.124Z,8.15
2024-02-18T07:44:26.471Z,8.16
2024-02-18T07:45:29.727Z,8.15
2024-02-18T07:46:33.511Z,8.19
2024-02-18T07:47:28.415Z,8.22
2024-02-18T07:48:28.923Z,8.25
2024-02-18T07:49:28.333Z,8.26
2024-02-18T07:50:29.250Z,8.28
2024-02-18T07:51:44.790Z,8.33
2024-02-18T07:52:45.835Z,8.34
2024-02-18T07:53:27.747Z,8.38
2024-02-18T07:54:26.822Z,8.41
2024-02-18T07:55:27.749Z,8.41
2024-02-18T07:56:28.189Z,8.45
2024-02-18T07:57:29.802Z,8.45
2024-02-18T08:02:40.812Z,8.48
2024-02-18T08:09:40.484Z,8.50
2024-02-18T08:10:43.416Z,8.52
2024-02-18T08:11:39.481Z,8.58
2024-02-18T08:13:01.318Z,8.59
2024-02-18T08:13:40.225Z,8.62
2024-02-18T08:14:41.331Z,8.61
2024-02-18T08:15:40.374Z,8.59
2024-02-18T08:16:51.491Z,8.62
2024-02-18T08:17:43.092Z,8.65
2024-02-18T08:19:03.412Z,8.66
2024-02-18T08:19:40.026Z,8.68
2024-02-18T08:20:43.135Z,8.73
2024-02-18T08:21:40.278Z,8.74
2024-02-18T08:23:07.667Z,8.77
2024-02-18T08:23:50.278Z,8.79
2024-02-18T08:24:48.207Z,8.81
2024-02-18T08:25:40.929Z,8.81
2024-02-18T08:26:43.623Z,8.83
2024-02-18T08:27:41.824Z,8.86
2024-02-18T08:28:42.338Z,8.89
2024-02-18T08:29:41.735Z,8.87
2024-02-18T08:30:54.485Z,8.87
2024-02-18T08:31:39.280Z,8.89
2024-02-18T08:33:01.972Z,8.86
2024-02-18T08:33:54.552Z,8.87
2024-02-18T08:34:41.986Z,8.91
2024-02-18T08:35:44.545Z,8.94
2024-02-18T08:40:13.220Z,9.05
2024-02-18T08:40:43.879Z,9.10
2024-02-18T08:59:02.011Z,9.23
2024-02-18T08:59:59.557Z,9.23
2024-02-18T09:00:59.953Z,9.28
2024-02-18T09:01:58.793Z,9.33
2024-02-18T09:02:56.357Z,9.35
2024-02-18T09:04:01.036Z,9.39
2024-02-18T09:05:12.760Z,9.40
2024-02-18T09:05:57.854Z,9.39
2024-02-18T09:07:19.272Z,9.40
2024-02-18T09:08:20.027Z,9.39
2024-02-18T09:09:15.754Z,9.36
2024-02-18T09:10:05.178Z,9.36
2024-02-18T09:10:59.769Z,9.35
2024-02-18T09:12:10.988Z,9.31
2024-02-18T09:13:20.424Z,9.29
2024-02-18T09:13:57.304Z,9.28
2024-02-18T09:15:07.853Z,9.28
2024-02-18T09:16:00.381Z,9.24
2024-02-18T09:17:03.857Z,9.26
2024-02-18T09:19:51.725Z,9.47
2024-02-18T09:20:24.619Z,9.50
2024-02-18T09:21:27.401Z,9.50
2024-02-18T09:25:12.395Z,9.54
2024-02-18T09:26:19.821Z,9.58
2024-02-18T09:27:16.407Z,9.57
2024-02-18T09:27:56.377Z,9.57
2024-02-18T09:29:03.237Z,9.54
2024-02-18T09:29:59.700Z,9.53
2024-02-18T09:30:56.486Z,9.53
2024-02-18T09:31:58.406Z,9.50
2024-02-18T09:33:02.334Z,9.50
2024-02-18T09:33:59.694Z,9.51
2024-02-18T09:34:56.115Z,9.50
2024-02-18T09:35:55.675Z,9.54
2024-02-18T09:36:55.577Z,9.54
2024-02-18T09:43:01.170Z,9.53
2024-02-18T09:43:13.697Z,9.50
2024-02-18T09:44:14.393Z,9.46
2024-02-18T09:45:12.919Z,9.46
2024-02-18T09:46:23.363Z,9.46
2024-02-18T09:47:18.687Z,9.46
2024-02-18T09:48:21.640Z,9.47
2024-02-18T09:49:17.178Z,9.48
2024-02-18T09:50:15.178Z,9.46
2024-02-18T09:51:13.105Z,9.46
2024-02-18T09:52:13.355Z,9.42
2024-02-18T09:53:13.986Z,9.42
2024-02-18T09:54:16.776Z,9.40
2024-02-18T09:55:13.070Z,9.40
2024-02-18T09:56:34.257Z,9.38
2024-02-18T09:57:15.420Z,9.38
2024-02-18T09:58:48.985Z,9.39
2024-02-18T09:59:12.868Z,9.38
2024-02-18T10:00:27.750Z,9.39
2024-02-18T10:01:19.687Z,9.40
2024-02-18T10:04:23.891Z,9.40
2024-02-18T10:05:03.407Z,9.39
2024-02-18T10:06:14.252Z,9.40
2024-02-18T10:07:06.171Z,9.43
2024-02-18T10:08:17.143Z,9.43
2024-02-18T10:09:09.412Z,9.46
2024-02-18T10:10:02.040Z,9.43
2024-02-18T10:11:09.411Z,9.43
2024-02-18T10:12:00.845Z,9.40
2024-02-18T10:17:28.321Z,9.36
2024-02-18T10:18:17.766Z,9.35
2024-02-18T10:19:23.153Z,9.33
2024-02-18T10:20:09.083Z,9.35
2024-02-18T10:24:24.695Z,9.35
2024-02-18T10:25:39.825Z,9.36
2024-02-18T10:29:48.964Z,9.36
2024-02-18T10:30:32.863Z,9.33
2024-02-18T10:31:24.068Z,9.35
2024-02-18T10:32:33.967Z,9.36
2024-02-18T10:33:32.233Z,9.38
2024-02-18T10:34:26.975Z,9.38
2024-02-18T10:35:27.898Z,9.36
2024-02-18T10:36:33.365Z,9.38
2024-02-18T10:37:28.122Z,9.38
2024-02-18T10:38:40.094Z,9.39
2024-02-18T10:39:27.899Z,9.39
2024-02-18T10:42:42.710Z,9.46
2024-02-18T10:43:51.714Z,9.40
2024-02-18T10:44:58.913Z,9.42
2024-02-18T10:45:58.258Z,9.43
2024-02-18T10:47:26.412Z,9.46
2024-02-18T10:47:45.459Z,9.46
2024-02-18T10:50:18.501Z,9.43
2024-02-18T10:50:49.982Z,9.43
2024-02-18T10:51:24.998Z,9.40
2024-02-18T10:52:42.878Z,9.42
2024-02-18T10:53:24.467Z,9.42
2024-02-18T10:54:24.366Z,9.42
2024-02-18T10:55:27.592Z,9.42
2024-02-18T10:56:24.080Z,9.43
2024-02-18T10:57:24.950Z,9.42
2024-02-18T10:58:25.027Z,9.40
2024-02-18T10:59:24.749Z,9.40
2024-02-18T11:00:22.988Z,9.38
2024-02-18T11:01:26.929Z,9.38
2024-02-18T11:02:25.845Z,9.36
2024-02-18T11:03:24.393Z,9.38
2024-02-18T11:04:23.560Z,9.38
2024-02-18T11:05:23.307Z,9.38
2024-02-18T11:06:24.577Z,9.35
2024-02-18T11:07:22.436Z,9.38
2024-02-18T11:08:43.917Z,9.38
2024-02-18T11:09:23.148Z,9.39
2024-02-18T11:10:24.102Z,9.40
2024-02-18T11:11:21.964Z,9.38
2024-02-18T11:12:23.808Z,9.39
2024-02-18T11:16:38.319Z,9.39
2024-02-18T11:17:26.173Z,9.38
2024-02-18T11:18:28.438Z,9.40
2024-02-18T11:19:27.529Z,9.39
2024-02-18T11:20:29.648Z,9.39
2024-02-18T11:21:27.963Z,9.38
2024-02-18T11:22:26.840Z,9.39
2024-02-18T11:23:30.370Z,9.40
2024-02-18T11:24:28.090Z,9.40
2024-02-18T11:25:27.557Z,9.36
2024-02-18T11:26:27.162Z,9.39
2024-02-18T11:27:31.359Z,9.36
2024-02-18T11:28:27.414Z,9.36
2024-02-18T11:29:29.777Z,9.33
2024-02-18T11:30:29.976Z,9.33
2024-02-18T11:31:28.378Z,9.36
2024-02-18T11:32:28.093Z,9.36
2024-02-18T11:33:29.587Z,9.35
2024-02-18T11:34:27.522Z,9.33
2024-02-18T11:35:28.625Z,9.33
2024-02-18T11:36:25.580Z,9.32
2024-02-18T11:37:47.981Z,9.32
2024-02-18T11:38:26.771Z,9.31
2024-02-18T11:39:25.041Z,9.29
2024-02-18T11:40:26.076Z,9.28
2024-02-18T11:41:27.038Z,9.26
2024-02-18T11:42:25.264Z,9.26
2024-02-18T11:43:28.445Z,9.28
2024-02-18T11:44:25.637Z,9.26
2024-02-18T11:45:25.538Z,9.24
2024-02-18T11:46:25.100Z,9.23
2024-02-18T11:47:26.656Z,9.23
2024-02-18T11:48:27.068Z,9.26
2024-02-18T11:49:27.764Z,9.26
2024-02-18T11:50:26.804Z,9.26
2024-02-18T11:51:27.022Z,9.26
2024-02-18T11:52:30.079Z,9.24
2024-02-18T11:53:26.801Z,9.24
2024-02-18T11:54:31.486Z,9.23
2024-02-18T11:55:36.739Z,9.21
2024-02-18T11:56:25.004Z,9.21
2024-02-18T11:57:28.776Z,9.21
2024-02-18T11:58:25.697Z,9.23
2024-02-18T11:59:29.645Z,9.20
2024-02-18T12:00:24.827Z,9.20
2024-02-18T12:01:25.489Z,9.18
2024-02-18T12:02:26.979Z,9.18
2024-02-18T12:03:29.971Z,9.17
2024-02-18T12:04:26.068Z,9.20
2024-02-18T12:05:25.951Z,9.17
2024-02-18T12:06:27.818Z,9.20
2024-02-18T12:07:42.793Z,9.18
2024-02-18T12:08:43.073Z,9.18
2024-02-18T12:09:40.713Z,9.18
2024-02-18T12:10:51.043Z,9.20
2024-02-18T12:11:32.825Z,9.20
2024-02-18T12:12:36.267Z,9.18
2024-02-18T12:13:27.262Z,9.21
2024-02-18T12:14:58.305Z,9.18
2024-02-18T12:15:53.254Z,9.18
2024-02-18T12:16:46.970Z,9.21
2024-02-18T12:17:41.302Z,9.20
2024-02-18T12:18:28.706Z,9.21
2024-02-18T12:19:25.954Z,9.20
2024-02-18T12:20:30.874Z,9.18
2024-02-18T12:21:29.906Z,9.18
2024-02-18T12:26:54.191Z,9.23
2024-02-18T12:27:38.234Z,9.20
2024-02-18T12:35:03.483Z,9.18
2024-02-18T12:36:03.147Z,9.15
2024-02-18T12:37:04.150Z,9.14
2024-02-18T12:38:03.053Z,9.14
2024-02-18T12:39:03.022Z,9.15
2024-02-18T12:40:03.496Z,9.15
2024-02-18T12:41:03.614Z,9.13
2024-02-18T12:42:04.409Z,9.13
2024-02-18T12:44:41.139Z,9.13
2024-02-18T12:45:43.831Z,9.11
2024-02-18T12:46:07.009Z,9.08
2024-02-18T12:47:03.007Z,9.10
2024-02-18T12:48:05.731Z,9.05
2024-02-18T12:49:03.762Z,9.08
2024-02-18T12:50:03.324Z,9.05
2024-02-18T12:51:18.930Z,9.04
2024-02-18T12:52:04.529Z,9.04
2024-02-18T12:53:02.850Z,8.98
2024-02-18T12:54:19.030Z,9.01
2024-02-18T12:55:04.851Z,8.99
2024-02-18T12:56:04.862Z,8.98
2024-02-18T12:57:03.620Z,8.99
2024-02-18T12:58:02.859Z,8.98
2024-02-18T12:59:02.811Z,8.94
2024-02-18T13:00:02.756Z,8.94
2024-02-18T13:01:02.936Z,8.92
2024-02-18T13:02:02.772Z,8.94
2024-02-18T13:03:16.117Z,8.92
2024-02-18T13:04:03.514Z,8.95
2024-02-18T13:05:02.852Z,8.86
2024-02-18T13:06:03.278Z,8.94
2024-02-18T13:07:02.743Z,8.89
2024-02-18T13:08:02.666Z,8.87
2024-02-18T13:09:03.817Z,8.86
2024-02-18T13:10:02.688Z,8.81
2024-02-18T13:11:02.783Z,8.80
2024-02-18T13:12:05.493Z,8.81
2024-02-18T13:13:04.580Z,8.81
2024-02-18T13:14:02.618Z,8.79
2024-02-18T13:15:02.594Z,8.77
2024-02-18T13:16:02.693Z,8.74
2024-02-18T13:17:02.633Z,8.77
2024-02-18T13:19:22.169Z,8.76
2024-02-18T13:20:14.983Z,8.74
2024-02-18T13:21:14.954Z,8.74
2024-02-18T13:22:15.000Z,8.76
2024-02-18T13:23:16.354Z,8.74
2024-02-18T13:24:19.020Z,8.73
2024-02-18T13:25:41.468Z,8.70
2024-02-18T13:26:38.782Z,8.76
2024-02-18T13:27:14.920Z,8.77
2024-02-18T13:28:15.844Z,8.79
2024-02-18T13:29:15.542Z,8.79
2024-02-18T13:30:32.846Z,8.76
2024-02-18T13:31:16.446Z,8.74
2024-02-18T13:32:16.819Z,8.74
2024-02-18T13:33:14.958Z,8.79
2024-02-18T13:34:23.715Z,8.79
2024-02-18T13:35:21.766Z,8.77
2024-02-18T13:36:17.626Z,8.74
2024-02-18T13:37:15.722Z,8.68
2024-02-18T13:38:15.863Z,8.66
2024-02-18T13:40:46.117Z,8.66
2024-02-18T13:41:39.557Z,8.63
2024-02-18T13:42:39.542Z,8.63
2024-02-18T13:43:47.350Z,8.65
2024-02-18T13:44:39.498Z,8.63
2024-02-18T13:45:40.112Z,8.66
2024-02-18T13:54:46.397Z,8.62
2024-02-18T13:55:44.289Z,8.61
2024-02-18T13:56:57.425Z,8.56
2024-02-18T13:58:10.573Z,8.56
2024-02-18T13:58:48.046Z,8.50
2024-02-18T13:59:45.809Z,8.50
2024-02-18T14:02:23.545Z,8.50
2024-02-18T14:03:40.296Z,8.55
2024-02-18T14:04:18.282Z,8.52
2024-02-18T14:05:19.384Z,8.52
2024-02-18T14:06:18.281Z,8.48
2024-02-18T14:07:22.640Z,8.50
2024-02-18T14:11:08.781Z,8.44
2024-02-18T14:11:53.126Z,8.41
2024-02-18T14:12:38.218Z,8.41
2024-02-18T14:14:03.374Z,8.40
2024-02-18T14:14:40.683Z,8.38
2024-02-18T14:15:43.843Z,8.41
2024-02-18T14:16:49.383Z,8.40
2024-02-18T14:18:04.746Z,8.40
2024-02-18T14:18:38.110Z,8.40
2024-02-18T14:22:18.114Z,8.40
2024-02-18T14:22:45.893Z,8.36
2024-02-18T14:23:47.897Z,8.36
2024-02-18T14:24:47.736Z,8.30
2024-02-18T14:26:25.400Z,8.28
2024-02-18T14:26:49.911Z,8.28
2024-02-18T14:27:56.786Z,8.28
2024-02-18T14:28:59.850Z,8.26
2024-02-18T14:30:06.111Z,8.20
2024-02-18T15:14:54.240Z,7.75
2024-02-18T15:15:32.793Z,7.75
2024-02-18T15:34:09.459Z,7.67
2024-02-18T16:08:22.022Z,7.32
2024-02-18T16:38:02.261Z,7.42
2024-02-18T16:39:45.881Z,7.45
2024-02-18T16:40:07.950Z,7.35
2024-02-18T18:15:44.245Z,7.80
2024-02-18T18:16:39.016Z,7.79
2024-02-18T18:17:37.798Z,7.79
2024-02-18T18:18:37.288Z,7.80
2024-02-18T18:19:35.288Z,7.82
2024-02-18T18:20:33.721Z,7.82
2024-02-18T18:21:35.352Z,7.83
2024-02-18T18:22:34.662Z,7.85
2024-02-18T18:23:34.042Z,7.86
2024-02-18T18:24:34.102Z,7.89
2024-02-18T18:25:34.791Z,7.89
2024-02-18T18:26:35.430Z,7.87
2024-02-18T18:27:36.534Z,7.87
2024-02-18T18:28:35.296Z,7.89
2024-02-18T18:29:35.263Z,7.89
2024-02-18T18:30:38.634Z,7.89
2024-02-18T18:31:41.491Z,7.90
2024-02-18T18:32:39.565Z,7.90
2024-02-18T18:33:37.555Z,7.90
2024-02-18T18:34:36.199Z,7.92
2024-02-18T18:37:12.518Z,7.95
2024-02-18T18:38:13.623Z,7.95
2024-02-18T18:39:24.659Z,7.95
2024-02-18T18:40:14.498Z,7.97
2024-02-18T18:41:13.117Z,7.97
2024-02-18T18:42:13.897Z,7.98
2024-02-18T18:43:17.479Z,7.98
2024-02-18T18:44:14.600Z,8.00
2024-02-18T18:45:13.889Z,8.02
2024-02-18T18:46:12.179Z,8.02
2024-02-18T18:47:12.890Z,8.07
2024-02-18T18:48:12.730Z,8.05
2024-02-18T18:49:14.382Z,8.07
2024-02-18T18:50:12.512Z,8.07
2024-02-18T18:51:12.161Z,8.07
2024-02-18T18:52:12.622Z,8.08
2024-02-18T18:53:12.604Z,8.11
2024-02-18T18:54:17.054Z,8.11
2024-02-18T18:56:33.417Z,8.16
2024-02-18T18:57:37.883Z,8.11
2024-02-18T18:58:32.659Z,8.18
2024-02-18T18:59:36.582Z,8.18
2024-02-18T19:00:47.702Z,8.16
2024-02-18T19:01:35.099Z,8.18
2024-02-18T19:02:33.033Z,8.19
2024-02-18T19:03:34.266Z,8.18
2024-02-18T19:04:54.806Z,8.19
2024-02-18T19:05:35.329Z,8.20
2024-02-18T19:08:55.379Z,8.19
2024-02-18T19:09:45.937Z,8.19
2024-02-18T19:12:14.163Z,8.19
2024-02-18T19:13:14.667Z,8.22
2024-02-18T19:14:03.389Z,8.20
2024-02-18T19:17:41.159Z,8.26
2024-02-18T19:18:25.676Z,8.23
2024-02-18T19:19:25.183Z,8.23
2024-02-18T19:20:21.124Z,8.23
2024-02-18T19:24:24.035Z,8.26
2024-02-18T19:26:50.245Z,8.28
2024-02-18T19:27:49.399Z,8.26
2024-02-18T19:28:46.341Z,8.28
2024-02-18T19:29:46.328Z,8.28
2024-02-18T19:32:54.447Z,8.33
2024-02-18T19:34:05.469Z,8.34
2024-02-18T19:39:41.364Z,8.34
2024-02-18T19:40:54.146Z,8.34
2024-02-18T19:41:42.329Z,8.36
2024-02-18T19:44:05.931Z,8.40
2024-02-18T19:45:02.222Z,8.41
2024-02-18T19:46:07.701Z,8.40
2024-02-18T19:48:21.075Z,8.40
2024-02-18T19:49:20.095Z,8.38
2024-02-18T19:50:20.334Z,8.41
2024-02-18T19:51:22.449Z,8.38
2024-02-18T19:52:20.607Z,8.40
2024-02-18T19:53:21.449Z,8.43
2024-02-18T19:54:19.973Z,8.44
2024-02-18T19:55:19.078Z,8.47
2024-02-18T19:56:20.793Z,8.47
2024-02-18T19:57:21.955Z,8.50
2024-02-18T19:58:19.956Z,8.50
2024-02-18T19:59:24.346Z,8.53
2024-02-18T20:02:27.341Z,8.56
2024-02-18T20:03:10.404Z,8.55
2024-02-18T20:04:12.485Z,8.58
2024-02-18T20:05:12.640Z,8.59
2024-02-18T20:07:38.399Z,8.61
2024-02-18T20:08:27.329Z,8.56
2024-02-18T20:09:28.573Z,8.59
2024-02-18T20:10:28.260Z,8.59
2024-02-18T20:11:31.510Z,8.58
2024-02-18T20:15:51.929Z,8.59
2024-02-18T20:16:50.176Z,8.61
2024-02-18T20:17:53.582Z,8.61
2024-02-18T20:18:50.593Z,8.58
2024-02-18T20:19:52.513Z,8.56
2024-02-18T20:20:51.353Z,8.58
2024-02-18T20:25:02.970Z,8.55
2024-02-18T20:26:03.759Z,8.53
2024-02-18T20:27:06.615Z,8.55
2024-02-18T20:29:29.599Z,8.53
2024-02-18T20:31:51.402Z,8.50
2024-02-18T20:32:52.147Z,8.47
2024-02-18T20:36:06.410Z,8.45
2024-02-18T20:36:59.403Z,8.44
2024-02-18T20:39:27.752Z,8.44
2024-02-18T20:43:31.405Z,8.37
2024-02-18T20:44:17.950Z,8.36
2024-02-18T20:45:16.833Z,8.34
2024-02-18T20:46:19.682Z,8.34
2024-02-18T20:47:16.744Z,8.30
2024-02-18T20:48:28.069Z,8.28
2024-02-18T20:49:18.746Z,8.25
2024-02-18T20:50:31.911Z,8.25
2024-02-18T20:53:13.846Z,8.25
2024-02-18T20:54:12.359Z,8.22
2024-02-18T20:55:14.600Z,8.20
2024-02-18T20:56:17.390Z,8.20
2024-02-18T20:57:15.646Z,8.20
2024-02-18T20:58:19.947Z,8.18
2024-02-18T21:00:36.476Z,8.11
2024-02-18T21:01:32.328Z,8.12
2024-02-18T21:02:31.021Z,8.11
2024-02-18T21:03:32.482Z,8.11
2024-02-18T21:04:31.104Z,8.10
2024-02-18T21:05:33.247Z,8.07
2024-02-18T21:06:35.041Z,8.08
2024-02-18T21:07:32.005Z,8.07
2024-02-18T21:08:33.723Z,8.05
2024-02-18T21:09:31.739Z,8.04
2024-02-18T21:10:38.168Z,8.04
2024-02-18T21:11:30.917Z,8.02
2024-02-18T21:12:31.220Z,8.02
2024-02-18T21:13:31.648Z,8.02
2024-02-18T21:16:06.280Z,8.02
2024-02-18T21:16:12.297Z,8.02
2024-02-18T21:16:50.436Z,8.01
2024-02-18T21:17:49.484Z,8.00
2024-02-18T21:18:54.380Z,8.01
2024-02-18T21:22:22.098Z,8.02
2024-02-18T21:23:24.172Z,7.98
2024-02-18T21:24:24.847Z,7.97
2024-02-18T21:25:27.394Z,7.95
2024-02-18T21:26:23.633Z,7.98
2024-02-18T21:27:24.975Z,7.93
2024-02-18T21:29:42.987Z,7.90
2024-02-18T21:29:58.826Z,7.92
2024-02-18T21:30:23.974Z,7.92
2024-02-18T21:31:23.193Z,7.90
2024-02-18T21:32:23.077Z,7.92
2024-02-18T21:33:23.045Z,7.89
2024-02-18T21:34:26.203Z,7.89
